Time;durP1;ratioP1;P1;durP2;ratioP2;P2;SDS_P1;SDS_P2;PMS_P1;PMS_P2;Temp;Humidity;BMP_temperature;BMP_pressure;BME280_temperature;BME280_humidity;BME280_pressure;Samples;Min_cycle;Max_cycle;Signal;HPM_P1;HPM_P2
2023/09/07 00:01:36;;;;;;;3.95;3.58;;;;;;;;;;5066597;28;20229;-88
2023/09/07 00:04:06;;;;;;;3.93;3.53;;;;;;;;;;5075504;28;20566;-88
2023/09/07 00:06:34;;;;;;;4.50;3.87;;;;;;;;;;5064593;28;20708;-88
2023/09/07 00:09:01;;;;;;;4.20;3.80;;;;;;;;;;5055113;28;20255;-88
2023/09/07 00:11:28;;;;;;;5.20;3.70;;;;;;;;;;5055251;28;20437;-87
2023/09/07 00:13:57;;;;;;;5.13;3.83;;;;;;;;;;5055962;28;20245;-87
2023/09/07 00:16:24;;;;;;;6.63;4.13;;;;;;;;;;5058841;28;20246;-88
2023/09/07 00:18:51;;;;;;;6.35;3.88;;;;;;;;;;5074737;28;20201;-88
2023/09/07 00:21:20;;;;;;;5.47;3.83;;;;;;;;;;5065748;28;20252;-87
2023/09/07 00:23:47;;;;;;;4.82;3.63;;;;;;;;;;5054127;28;20248;-87
2023/09/07 00:26:14;;;;;;;4.27;3.87;;;;;;;;;;5054110;28;20245;-88
2023/09/07 00:28:41;;;;;;;5.30;4.80;;;;;;;;;;5067886;28;20209;-88
2023/09/07 00:31:08;;;;;;;6.13;3.70;;;;;;;;;;5067229;28;20226;-88
2023/09/07 00:33:35;;;;;;;4.70;3.90;;;;;;;;;;5067789;28;20201;-88
2023/09/07 00:36:03;;;;;;;4.10;3.80;;;;;;;;;;5073741;28;20237;-88
2023/09/07 00:38:31;;;;;;;4.30;3.90;;;;;;;;;;5074642;28;20205;-88
2023/09/07 00:40:58;;;;;;;4.20;3.80;;;;;;;;;;5068799;28;20233;-87
2023/09/07 00:43:26;;;;;;;3.60;3.30;;;;;;;;;;5059735;28;20226;-87
2023/09/07 00:45:54;;;;;;;5.10;3.30;;;;;;;;;;5054346;28;20312;-87
2023/09/07 00:48:21;;;;;;;4.53;3.27;;;;;;;;;;5053911;28;20202;-88
2023/09/07 00:50:48;;;;;;;4.37;3.27;;;;;;;;;;5053989;28;20765;-88
2023/09/07 00:53:16;;;;;;;3.93;3.50;;;;;;;;;;5062861;28;20201;-88
2023/09/07 00:55:45;;;;;;;3.87;3.40;;;;;;;;;;5067605;28;20738;-87
2023/09/07 00:58:13;;;;;;;3.90;3.60;;;;;;;;;;5071064;28;20205;-88
2023/09/07 01:00:42;;;;;;;3.77;3.47;;;;;;;;;;5063274;28;20595;-88
2023/09/07 01:03:09;;;;;;;4.30;3.90;;;;;;;;;;5067695;28;20260;-88
2023/09/07 01:05:43;;;;;;;6.17;3.70;;;;;;;;;;5062811;28;20231;-88
2023/09/07 01:08:13;;;;;;;4.60;4.10;;;;;;;;;;5043428;28;20719;-88
2023/09/07 01:10:40;;;;;;;4.60;3.70;;;;;;;;;;5054819;28;20230;-87
2023/09/07 01:13:08;;;;;;;6.40;3.60;;;;;;;;;;5054412;28;20206;-87
2023/09/07 01:15:36;;;;;;;5.20;3.13;;;;;;;;;;5053324;28;20242;-88
2023/09/07 01:18:03;;;;;;;4.73;3.47;;;;;;;;;;5053979;28;20222;-88
2023/09/07 01:20:31;;;;;;;4.37;3.97;;;;;;;;;;5053020;28;20237;-87
2023/09/07 01:22:59;;;;;;;3.80;3.50;;;;;;;;;;5054437;28;20232;-88
2023/09/07 01:25:28;;;;;;;4.07;3.77;;;;;;;;;;5053444;28;20236;-87
2023/09/07 01:27:55;;;;;;;5.43;3.90;;;;;;;;;;5057197;28;20484;-88
2023/09/07 01:30:23;;;;;;;5.03;3.77;;;;;;;;;;5053845;28;20237;-87
2023/09/07 01:32:50;;;;;;;4.37;3.97;;;;;;;;;;5054366;28;20580;-87
2023/09/07 01:35:18;;;;;;;4.50;4.03;;;;;;;;;;5054194;28;20230;-89
2023/09/07 01:37:45;;;;;;;4.30;3.90;;;;;;;;;;5053624;28;20234;-88
2023/09/07 01:40:13;;;;;;;4.10;3.70;;;;;;;;;;5052917;28;20233;-87
2023/09/07 01:42:40;;;;;;;5.20;4.17;;;;;;;;;;5065632;28;20226;-88
2023/09/07 01:45:08;;;;;;;5.07;3.60;;;;;;;;;;5073405;28;20307;-88
2023/09/07 01:47:35;;;;;;;5.23;3.57;;;;;;;;;;5069436;28;20222;-88
2023/09/07 01:50:03;;;;;;;5.60;3.80;;;;;;;;;;5053506;28;20245;-88
2023/09/07 01:52:31;;;;;;;4.17;3.80;;;;;;;;;;5053850;28;20195;-88
2023/09/07 01:54:58;;;;;;;4.23;3.87;;;;;;;;;;5064889;28;20228;-88
2023/09/07 01:57:27;;;;;;;6.23;3.80;;;;;;;;;;5056779;28;20226;-87
2023/09/07 01:59:54;;;;;;;6.00;3.70;;;;;;;;;;5073285;28;20305;-88
2023/09/07 02:02:21;;;;;;;4.00;3.60;;;;;;;;;;5055711;28;20198;-87
2023/09/07 02:04:48;;;;;;;4.53;3.73;;;;;;;;;;5053180;28;20248;-87
2023/09/07 02:07:15;;;;;;;4.13;3.70;;;;;;;;;;5069724;28;20632;-88
2023/09/07 02:09:43;;;;;;;6.90;3.70;;;;;;;;;;5073110;28;20212;-88
2023/09/07 02:12:10;;;;;;;5.67;4.10;;;;;;;;;;5063505;28;20557;-87
2023/09/07 02:14:39;;;;;;;8.00;4.10;;;;;;;;;;5052818;28;20206;-88
2023/09/07 02:17:06;;;;;;;5.53;4.43;;;;;;;;;;5053480;28;20241;-88
2023/09/07 02:19:33;;;;;;;10.73;4.57;;;;;;;;;;5053045;28;20209;-88
2023/09/07 02:22:00;;;;;;;5.93;3.50;;;;;;;;;;5053381;28;20308;-87
2023/09/07 02:24:27;;;;;;;6.87;4.53;;;;;;;;;;5053504;28;20233;-88
2023/09/07 02:26:54;;;;;;;4.43;3.87;;;;;;;;;;5052632;28;20246;-87
2023/09/07 02:29:21;;;;;;;4.93;3.90;;;;;;;;;;5053183;28;20225;-88
2023/09/07 02:31:50;;;;;;;4.10;3.70;;;;;;;;;;5054253;28;20240;-88
2023/09/07 02:34:17;;;;;;;4.50;4.10;;;;;;;;;;5057296;28;20221;-87
2023/09/07 02:36:44;;;;;;;4.93;3.97;;;;;;;;;;5056115;28;20240;-88
2023/09/07 02:39:11;;;;;;;5.33;3.83;;;;;;;;;;5056337;28;20217;-87
2023/09/07 02:41:39;;;;;;;4.80;3.93;;;;;;;;;;5055482;28;20316;-88
2023/09/07 02:44:06;;;;;;;6.20;4.17;;;;;;;;;;5070646;28;20713;-87
2023/09/07 02:46:33;;;;;;;5.33;4.07;;;;;;;;;;5076356;28;20237;-87
2023/09/07 02:49:02;;;;;;;4.50;3.27;;;;;;;;;;5076770;28;20216;-87
2023/09/07 02:51:29;;;;;;;6.43;3.53;;;;;;;;;;5067923;28;20262;-88
2023/09/07 02:53:58;;;;;;;4.23;3.70;;;;;;;;;;5063402;28;20208;-88
2023/09/07 02:56:26;;;;;;;7.70;4.07;;;;;;;;;;5062764;28;20242;-87
2023/09/07 02:58:53;;;;;;;5.50;3.60;;;;;;;;;;5070683;28;20259;-88
2023/09/07 03:01:21;;;;;;;6.43;4.13;;;;;;;;;;5059515;28;20230;-87
2023/09/07 03:03:48;;;;;;;4.77;4.00;;;;;;;;;;5076484;28;20292;-87
2023/09/07 03:06:17;;;;;;;4.07;3.57;;;;;;;;;;5060746;28;20644;-87
2023/09/07 03:08:44;;;;;;;5.57;4.10;;;;;;;;;;5061039;28;20212;-88
2023/09/07 03:11:11;;;;;;;4.43;4.03;;;;;;;;;;5075352;28;20241;-88
2023/09/07 03:13:39;;;;;;;3.83;3.47;;;;;;;;;;5075232;28;20201;-88
2023/09/07 03:16:06;;;;;;;5.70;4.23;;;;;;;;;;5061064;28;20834;-87
2023/09/07 03:18:33;;;;;;;4.90;4.20;;;;;;;;;;5075846;28;20205;-87
2023/09/07 03:21:02;;;;;;;4.20;3.90;;;;;;;;;;5075171;28;20707;-87
2023/09/07 03:23:30;;;;;;;5.80;3.90;;;;;;;;;;5059191;28;20312;-87
2023/09/07 03:25:58;;;;;;;3.93;3.63;;;;;;;;;;5069507;28;20233;-87
2023/09/07 03:28:25;;;;;;;3.90;3.60;;;;;;;;;;5063484;28;20546;-87
2023/09/07 03:30:53;;;;;;;3.93;3.63;;;;;;;;;;5070169;28;20279;-87
2023/09/07 03:33:20;;;;;;;4.20;3.80;;;;;;;;;;5075476;28;20202;-87
2023/09/07 03:35:47;;;;;;;3.90;3.50;;;;;;;;;;5069213;28;20263;-88
2023/09/07 03:38:14;;;;;;;4.07;3.70;;;;;;;;;;5055034;28;20397;-88
2023/09/07 03:40:43;;;;;;;6.23;3.97;;;;;;;;;;5054085;28;20255;-88
2023/09/07 03:43:10;;;;;;;7.03;3.97;;;;;;;;;;5054036;28;20213;-88
2023/09/07 03:45:58;;;;;;;;;;;;;;;;;;;;;
2023/09/07 03:48:25;;;;;;;3.70;3.40;;;;;;;;;;5074543;28;20213;-88
2023/09/07 03:50:52;;;;;;;8.53;4.10;;;;;;;;;;5056173;28;20234;-87
2023/09/07 03:53:20;;;;;;;6.27;4.13;;;;;;;;;;5054780;28;20202;-87
2023/09/07 03:55:48;;;;;;;5.40;4.63;;;;;;;;;;5063461;28;20236;-88
2023/09/07 03:58:15;;;;;;;4.80;3.53;;;;;;;;;;5074751;28;20209;-87
2023/09/07 04:00:43;;;;;;;4.30;3.90;;;;;;;;;;5063397;28;20232;-87
2023/09/07 04:03:10;;;;;;;5.40;4.00;;;;;;;;;;5074438;28;20194;-87
2023/09/07 04:05:38;;;;;;;6.77;4.07;;;;;;;;;;5074466;28;20247;-87
2023/09/07 04:08:05;;;;;;;4.10;3.70;;;;;;;;;;5074792;28;20225;-87
2023/09/07 04:10:33;;;;;;;4.33;3.93;;;;;;;;;;5061628;28;20605;-87
2023/09/07 04:13:01;;;;;;;4.93;4.13;;;;;;;;;;5059508;28;20197;-87
2023/09/07 04:15:28;;;;;;;6.57;4.20;;;;;;;;;;5053455;28;20284;-89
2023/09/07 04:17:55;;;;;;;4.77;4.30;;;;;;;;;;5056683;28;20658;-88
2023/09/07 04:20:23;;;;;;;4.43;4.03;;;;;;;;;;5054630;28;20237;-88
2023/09/07 04:22:50;;;;;;;5.43;4.30;;;;;;;;;;5055374;28;20210;-88
2023/09/07 04:25:18;;;;;;;7.53;4.60;;;;;;;;;;5054158;28;20234;-88
2023/09/07 04:27:45;;;;;;;6.70;4.50;;;;;;;;;;5054484;28;20726;-88
2023/09/07 04:30:13;;;;;;;5.27;4.33;;;;;;;;;;5054034;28;20730;-88
2023/09/07 04:32:40;;;;;;;6.83;5.20;;;;;;;;;;5054426;28;20206;-88
2023/09/07 04:35:08;;;;;;;7.37;5.33;;;;;;;;;;5056249;28;20236;-86
2023/09/07 04:37:35;;;;;;;7.27;5.57;;;;;;;;;;5052285;28;20237;-86
2023/09/07 04:40:02;;;;;;;7.87;5.80;;;;;;;;;;5052592;28;20237;-85
2023/09/07 04:42:29;;;;;;;6.60;5.90;;;;;;;;;;5052985;28;20214;-86
2023/09/07 04:44:56;;;;;;;6.50;5.90;;;;;;;;;;5052044;28;20241;-86
2023/09/07 04:47:25;;;;;;;5.70;5.13;;;;;;;;;;5052493;28;20221;-87
2023/09/07 04:49:52;;;;;;;7.60;5.50;;;;;;;;;;5052067;28;20203;-86
2023/09/07 04:52:19;;;;;;;8.23;6.00;;;;;;;;;;5052696;28;20194;-87
2023/09/07 04:54:46;;;;;;;7.37;5.80;;;;;;;;;;5051029;28;20228;-86
2023/09/07 04:57:15;;;;;;;7.37;5.83;;;;;;;;;;5052413;28;20218;-86
2023/09/07 04:59:43;;;;;;;6.67;5.73;;;;;;;;;;5051929;28;20212;-87
2023/09/07 05:02:11;;;;;;;6.17;5.57;;;;;;;;;;5052702;28;20198;-86
2023/09/07 05:04:40;;;;;;;8.23;6.30;;;;;;;;;;5052216;28;20222;-87
2023/09/07 05:07:07;;;;;;;10.33;6.10;;;;;;;;;;5052244;28;20237;-86
2023/09/07 05:09:34;;;;;;;10.57;6.00;;;;;;;;;;5052523;28;20209;-87
2023/09/07 05:12:01;;;;;;;9.50;6.23;;;;;;;;;;5052158;28;20296;-88
2023/09/07 05:14:29;;;;;;;7.83;6.57;;;;;;;;;;5054735;28;20202;-88
2023/09/07 05:16:57;;;;;;;8.03;6.47;;;;;;;;;;5054929;28;20238;-88
2023/09/07 05:19:24;;;;;;;7.20;6.50;;;;;;;;;;5052983;28;20666;-86
2023/09/07 05:21:53;;;;;;;11.17;6.93;;;;;;;;;;5051509;28;20261;-85
2023/09/07 05:24:20;;;;;;;10.07;7.20;;;;;;;;;;5051975;28;20233;-85
2023/09/07 05:26:47;;;;;;;10.83;6.97;;;;;;;;;;5053208;28;20252;-86
2023/09/07 05:29:14;;;;;;;9.10;6.47;;;;;;;;;;5052173;28;20206;-85
2023/09/07 05:31:41;;;;;;;10.47;7.00;;;;;;;;;;5051272;28;20234;-86
2023/09/07 05:34:08;;;;;;;10.23;7.40;;;;;;;;;;5051920;28;20217;-85
2023/09/07 05:36:36;;;;;;;8.47;6.93;;;;;;;;;;5050893;28;20328;-85
2023/09/07 05:39:04;;;;;;;12.33;6.97;;;;;;;;;;5051879;28;20565;-85
2023/09/07 05:41:31;;;;;;;9.63;7.63;;;;;;;;;;5051239;28;20725;-86
2023/09/07 05:43:59;;;;;;;12.53;8.17;;;;;;;;;;5050457;28;20233;-85
2023/09/07 05:46:26;;;;;;;8.73;7.20;;;;;;;;;;5050220;28;20316;-85
2023/09/07 05:48:53;;;;;;;8.00;7.20;;;;;;;;;;5053094;28;20205;-88
2023/09/07 05:51:20;;;;;;;8.73;7.43;;;;;;;;;;5052405;28;20233;-88
2023/09/07 05:53:47;;;;;;;7.87;7.07;;;;;;;;;;5061096;28;20197;-86
2023/09/07 05:56:15;;;;;;;7.33;6.57;;;;;;;;;;5052450;28;20238;-86
2023/09/07 05:58:42;;;;;;;8.00;7.10;;;;;;;;;;5051947;28;20215;-86
2023/09/07 06:01:09;;;;;;;11.43;7.47;;;;;;;;;;5052987;28;20407;-87
2023/09/07 06:03:39;;;;;;;8.03;7.23;;;;;;;;;;5051688;28;20214;-87
2023/09/07 06:06:06;;;;;;;12.03;6.87;;;;;;;;;;5053720;28;20237;-86
2023/09/07 06:08:33;;;;;;;9.00;7.30;;;;;;;;;;5055799;28;20206;-86
2023/09/07 06:11:00;;;;;;;11.10;7.77;;;;;;;;;;5055423;28;20237;-86
2023/09/07 06:13:29;;;;;;;12.53;7.60;;;;;;;;;;5055811;28;20206;-87
2023/09/07 06:15:56;;;;;;;8.33;7.47;;;;;;;;;;5054987;28;20810;-86
2023/09/07 06:18:23;;;;;;;13.57;8.77;;;;;;;;;;5055817;28;20698;-86
2023/09/07 06:20:50;;;;;;;13.63;8.43;;;;;;;;;;5055153;28;20734;-86
2023/09/07 06:23:17;;;;;;;9.67;8.17;;;;;;;;;;5055516;28;20570;-86
2023/09/07 06:25:44;;;;;;;9.43;8.30;;;;;;;;;;5054618;28;20817;-86
2023/09/07 06:28:11;;;;;;;10.57;8.33;;;;;;;;;;5055524;28;20598;-86
2023/09/07 06:30:40;;;;;;;10.93;8.33;;;;;;;;;;5054975;28;20244;-86
2023/09/07 06:33:07;;;;;;;11.00;8.73;;;;;;;;;;5056865;28;20210;-88
2023/09/07 06:35:34;;;;;;;11.03;9.03;;;;;;;;;;5056223;28;20229;-88
2023/09/07 06:38:01;;;;;;;10.57;8.60;;;;;;;;;;5056920;28;20252;-88
2023/09/07 06:40:29;;;;;;;12.67;8.83;;;;;;;;;;5056451;28;20253;-88
2023/09/07 06:42:57;;;;;;;9.23;8.43;;;;;;;;;;5056926;28;20264;-87
2023/09/07 06:45:24;;;;;;;8.93;7.77;;;;;;;;;;5055852;28;20308;-87
2023/09/07 06:47:53;;;;;;;10.97;7.83;;;;;;;;;;5056382;28;20585;-87
2023/09/07 06:50:22;;;;;;;13.07;8.40;;;;;;;;;;5054607;28;20240;-87
2023/09/07 06:52:49;;;;;;;10.60;7.17;;;;;;;;;;5057428;28;20541;-88
2023/09/07 06:55:16;;;;;;;8.50;7.53;;;;;;;;;;5057152;28;20234;-87
2023/09/07 06:57:43;;;;;;;13.33;8.20;;;;;;;;;;5057146;28;20230;-88
2023/09/07 07:00:11;;;;;;;8.80;8.00;;;;;;;;;;5056897;28;20234;-88
2023/09/07 07:02:39;;;;;;;9.13;7.13;;;;;;;;;;5069408;28;20293;-88
2023/09/07 07:05:08;;;;;;;8.23;7.43;;;;;;;;;;5075858;28;20233;-88
2023/09/07 07:07:35;;;;;;;7.70;6.90;;;;;;;;;;5076939;28;20290;-88
2023/09/07 07:10:03;;;;;;;8.30;7.30;;;;;;;;;;5076584;28;20225;-88
2023/09/07 07:12:34;;;;;;;9.10;7.20;;;;;;;;;;5076876;28;20201;-88
2023/09/07 07:15:01;;;;;;;8.13;7.33;;;;;;;;;;5076882;28;20229;-88
2023/09/07 07:17:28;;;;;;;8.03;7.23;;;;;;;;;;5076198;28;20615;-88
2023/09/07 07:19:55;;;;;;;8.30;7.40;;;;;;;;;;5076899;28;20243;-88
2023/09/07 07:22:24;;;;;;;8.33;7.40;;;;;;;;;;5076824;28;20205;-88
2023/09/07 07:24:51;;;;;;;8.33;7.53;;;;;;;;;;5076397;28;20206;-87
2023/09/07 07:27:18;;;;;;;9.20;7.30;;;;;;;;;;5076865;28;20232;-89
2023/09/07 07:29:45;;;;;;;7.53;6.83;;;;;;;;;;5063075;28;20202;-85
2023/09/07 07:32:12;;;;;;;8.00;7.30;;;;;;;;;;5055747;28;20237;-84
2023/09/07 07:34:39;;;;;;;7.17;6.57;;;;;;;;;;5054634;28;20206;-87
2023/09/07 07:37:06;;;;;;;8.53;7.60;;;;;;;;;;5055122;28;20238;-87
2023/09/07 07:39:35;;;;;;;7.77;6.80;;;;;;;;;;5056259;28;20213;-85
2023/09/07 07:42:03;;;;;;;8.37;6.63;;;;;;;;;;5055829;28;20233;-87
2023/09/07 07:44:30;;;;;;;6.50;5.90;;;;;;;;;;5055132;28;20210;-87
2023/09/07 07:46:57;;;;;;;7.18;5.93;;;;;;;;;;5053923;28;20241;-88
2023/09/07 07:49:24;;;;;;;5.85;5.20;;;;;;;;;;5054716;28;20205;-87
2023/09/07 07:51:54;;;;;;;5.78;5.28;;;;;;;;;;5054365;28;20629;-87
2023/09/07 07:54:22;;;;;;;14.13;5.32;;;;;;;;;;5054516;28;20213;-87
2023/09/07 07:56:51;;;;;;;5.93;5.15;;;;;;;;;;5054661;28;20670;-87
2023/09/07 07:59:18;;;;;;;5.07;4.68;;;;;;;;;;5055892;28;20216;-87
2023/09/07 08:01:45;;;;;;;4.15;3.83;;;;;;;;;;5055072;28;20237;-87
2023/09/07 08:04:12;;;;;;;4.65;4.25;;;;;;;;;;5055808;28;20500;-87
2023/09/07 08:06:39;;;;;;;4.43;4.03;;;;;;;;;;5055207;28;20245;-87
2023/09/07 08:09:08;;;;;;;4.18;3.75;;;;;;;;;;5055948;28;20263;-88
2023/09/07 08:11:35;;;;;;;4.18;3.78;;;;;;;;;;5054776;28;20233;-88
2023/09/07 08:14:03;;;;;;;7.25;3.78;;;;;;;;;;5055486;28;20261;-88
2023/09/07 08:16:30;;;;;;;6.72;3.63;;;;;;;;;;5054454;28;20238;-88
2023/09/07 08:18:58;;;;;;;5.45;4.13;;;;;;;;;;5055783;28;20198;-88
2023/09/07 08:21:25;;;;;;;3.58;3.28;;;;;;;;;;5055499;28;20238;-87
2023/09/07 08:23:53;;;;;;;4.18;3.40;;;;;;;;;;5055790;28;20201;-88
2023/09/07 08:26:21;;;;;;;3.70;3.40;;;;;;;;;;5055084;28;20268;-88
2023/09/07 08:28:48;;;;;;;4.93;3.45;;;;;;;;;;5055972;28;20206;-88
2023/09/07 08:31:21;;;;;;;4.97;3.53;;;;;;;;;;5054856;28;20301;-89
2023/09/07 08:33:50;;;;;;;4.20;3.30;;;;;;;;;;5055053;28;20214;-87
2023/09/07 08:36:17;;;;;;;4.00;3.60;;;;;;;;;;5055268;28;20234;-89
2023/09/07 08:38:46;;;;;;;4.30;3.90;;;;;;;;;;5054528;28;20264;-88
2023/09/07 08:41:14;;;;;;;5.25;3.35;;;;;;;;;;5053615;28;20259;-88
2023/09/07 08:43:47;;;;;;;5.97;3.83;;;;;;;;;;5054608;28;20576;-89
2023/09/07 08:46:17;;;;;;;3.75;3.28;;;;;;;;;;5054245;28;20257;-88
2023/09/07 08:48:46;;;;;;;4.18;3.60;;;;;;;;;;5055078;28;20298;-89
2023/09/07 08:51:14;;;;;;;3.72;3.42;;;;;;;;;;5054627;28;20738;-90
2023/09/07 08:53:45;;;;;;;5.03;3.60;;;;;;;;;;5050574;28;20668;-88
2023/09/07 08:56:13;;;;;;;3.55;3.25;;;;;;;;;;5067601;28;20233;-90
2023/09/07 08:58:41;;;;;;;4.05;3.65;;;;;;;;;;5065944;28;20684;-92
2023/09/07 09:01:09;;;;;;;3.80;3.50;;;;;;;;;;5060153;28;20279;-91
2023/09/07 09:03:37;;;;;;;4.00;3.60;;;;;;;;;;5057369;28;20202;-91
2023/09/07 09:06:05;;;;;;;4.07;3.67;;;;;;;;;;5058721;28;20225;-91
2023/09/07 09:08:42;;;;;;;4.22;3.42;;;;;;;;;;5066839;28;20205;-92
2023/09/07 09:11:10;;;;;;;3.58;3.28;;;;;;;;;;5055638;28;20233;-93
2023/09/07 09:13:37;;;;;;;3.80;3.30;;;;;;;;;;5071372;28;20213;-93
2023/09/07 09:16:05;;;;;;;6.85;3.55;;;;;;;;;;5048793;28;20226;-91
2023/09/07 09:18:32;;;;;;;4.00;3.20;;;;;;;;;;5062832;28;20554;-91
2023/09/07 09:21:00;;;;;;;4.13;3.72;;;;;;;;;;5057680;28;20229;-92
2023/09/07 09:23:32;;;;;;;3.35;3.05;;;;;;;;;;5068699;28;20211;-92
2023/09/07 09:26:00;;;;;;;4.13;3.58;;;;;;;;;;5038575;28;20230;-91
2023/09/07 09:28:28;;;;;;;3.63;3.33;;;;;;;;;;5061415;28;20201;-92
2023/09/07 09:30:55;;;;;;;3.92;3.53;;;;;;;;;;5054846;28;20234;-92
2023/09/07 09:33:22;;;;;;;3.72;3.33;;;;;;;;;;5055229;28;20229;-91
2023/09/07 09:35:50;;;;;;;6.15;3.55;;;;;;;;;;5063041;28;20225;-91
2023/09/07 09:38:18;;;;;;;3.53;3.22;;;;;;;;;;5055706;28;20249;-93
2023/09/07 09:40:46;;;;;;;5.10;3.17;;;;;;;;;;5054903;28;20233;-93
2023/09/07 09:43:13;;;;;;;3.70;3.33;;;;;;;;;;5055080;28;20202;-92
2023/09/07 09:45:41;;;;;;;5.90;3.10;;;;;;;;;;5055298;28;20234;-94
2023/09/07 09:48:08;;;;;;;3.35;3.05;;;;;;;;;;5056574;28;20221;-93
2023/09/07 09:50:37;;;;;;;3.05;2.83;;;;;;;;;;5054601;28;20228;-92
2023/09/07 09:53:05;;;;;;;3.20;3.00;;;;;;;;;;5060885;28;20185;-92
2023/09/07 09:55:33;;;;;;;3.03;2.83;;;;;;;;;;5071843;28;20229;-87
2023/09/07 09:58:00;;;;;;;3.50;3.20;;;;;;;;;;5051247;28;20236;-84
2023/09/07 10:00:29;;;;;;;4.55;3.22;;;;;;;;;;5050782;28;20229;-85
2023/09/07 10:02:59;;;;;;;4.35;3.20;;;;;;;;;;5058965;28;20668;-85
2023/09/07 10:05:27;;;;;;;3.38;3.08;;;;;;;;;;5049910;28;20513;-85
2023/09/07 10:07:54;;;;;;;3.58;3.28;;;;;;;;;;5049209;28;20230;-83
2023/09/07 10:10:21;;;;;;;3.42;3.13;;;;;;;;;;5050384;28;20228;-85
2023/09/07 10:12:54;;;;;;;3.63;3.08;;;;;;;;;;5051320;28;20572;-86
2023/09/07 10:15:25;;;;;;;3.38;3.08;;;;;;;;;;5056683;28;20248;-86
2023/09/07 10:17:52;;;;;;;4.75;3.50;;;;;;;;;;5052685;28;20609;-87
2023/09/07 10:20:23;;;;;;;3.38;3.08;;;;;;;;;;5050613;28;20240;-86
2023/09/07 10:22:50;;;;;;;3.50;3.20;;;;;;;;;;5056886;28;20352;-85
2023/09/07 10:25:21;;;;;;;3.40;3.10;;;;;;;;;;5069930;28;20237;-87
2023/09/07 10:27:48;;;;;;;3.42;3.15;;;;;;;;;;5060037;28;20234;-88
2023/09/07 10:30:19;;;;;;;4.85;3.17;;;;;;;;;;5057066;28;20225;-87
2023/09/07 10:32:46;;;;;;;4.30;3.25;;;;;;;;;;5057448;28;20224;-88
2023/09/07 10:35:15;;;;;;;3.47;2.83;;;;;;;;;;5064853;28;20244;-87
2023/09/07 10:37:42;;;;;;;3.72;2.90;;;;;;;;;;5062924;28;20238;-87
2023/09/07 10:40:11;;;;;;;3.10;2.70;;;;;;;;;;5051451;28;20232;-87
2023/09/07 10:42:38;;;;;;;3.20;2.90;;;;;;;;;;5052267;28;20624;-87
2023/09/07 10:45:12;;;;;;;3.95;3.05;;;;;;;;;;5055229;28;20719;-87
2023/09/07 10:47:44;;;;;;;3.55;2.97;;;;;;;;;;5071797;28;20896;-87
2023/09/07 10:50:12;;;;;;;3.72;2.72;;;;;;;;;;5058304;28;20249;-87
2023/09/07 10:52:40;;;;;;;4.30;2.90;;;;;;;;;;5060643;28;20251;-86
2023/09/07 10:55:08;;;;;;;3.47;3.00;;;;;;;;;;5058449;28;20221;-87
2023/09/07 10:57:42;;;;;;;3.92;2.55;;;;;;;;;;5058410;28;20218;-84
2023/09/07 11:00:10;;;;;;;4.88;2.85;;;;;;;;;;5054355;28;20225;-86
2023/09/07 11:02:38;;;;;;;3.13;2.90;;;;;;;;;;5054986;28;20210;-87
2023/09/07 11:05:06;;;;;;;4.80;2.97;;;;;;;;;;5053624;28;20234;-87
2023/09/07 11:07:34;;;;;;;3.20;2.80;;;;;;;;;;5053904;28;20229;-85
2023/09/07 11:10:04;;;;;;;3.33;3.03;;;;;;;;;;5073854;28;20229;-86
2023/09/07 11:12:32;;;;;;;3.20;2.60;;;;;;;;;;5060128;28;20214;-87
2023/09/07 11:15:00;;;;;;;2.83;2.63;;;;;;;;;;5056671;28;20311;-88
2023/09/07 11:17:28;;;;;;;3.78;3.00;;;;;;;;;;5060869;28;20620;-90
2023/09/07 11:19:55;;;;;;;6.47;2.60;;;;;;;;;;5054510;28;20242;-88
2023/09/07 11:22:24;;;;;;;3.70;3.13;;;;;;;;;;5062917;28;20210;-88
2023/09/07 11:24:51;;;;;;;5.07;2.55;;;;;;;;;;5054162;28;20210;-88
2023/09/07 11:27:19;;;;;;;5.00;3.28;;;;;;;;;;5069158;28;20233;-88
2023/09/07 11:29:52;;;;;;;4.28;3.53;;;;;;;;;;5074358;28;20201;-88
2023/09/07 11:32:21;;;;;;;3.85;2.72;;;;;;;;;;5062966;28;20206;-88
2023/09/07 11:34:50;;;;;;;2.95;2.63;;;;;;;;;;5055051;28;20672;-88
2023/09/07 11:37:17;;;;;;;3.08;2.65;;;;;;;;;;5057919;28;20263;-88
2023/09/07 11:39:45;;;;;;;2.97;2.67;;;;;;;;;;5058316;28;20206;-88
2023/09/07 11:42:12;;;;;;;2.90;2.67;;;;;;;;;;5062395;28;20704;-88
2023/09/07 11:44:39;;;;;;;2.60;2.40;;;;;;;;;;5063300;28;20201;-89
2023/09/07 11:47:07;;;;;;;3.03;2.80;;;;;;;;;;5045539;28;20228;-88
2023/09/07 11:49:34;;;;;;;3.75;2.80;;;;;;;;;;5058517;28;20569;-88
2023/09/07 11:52:01;;;;;;;3.03;2.70;;;;;;;;;;5080257;28;20607;-88
2023/09/07 11:54:28;;;;;;;3.67;2.80;;;;;;;;;;5075759;28;20209;-87
2023/09/07 11:56:56;;;;;;;2.75;2.55;;;;;;;;;;5058063;28;20234;-88
2023/09/07 11:59:23;;;;;;;2.70;2.50;;;;;;;;;;5061220;28;20297;-88
2023/09/07 12:01:50;;;;;;;2.70;2.50;;;;;;;;;;5071219;28;20229;-87
2023/09/07 12:04:18;;;;;;;2.60;2.40;;;;;;;;;;5058560;28;20238;-89
2023/09/07 12:06:45;;;;;;;2.90;2.70;;;;;;;;;;5073892;28;20250;-88
2023/09/07 12:09:12;;;;;;;3.38;2.50;;;;;;;;;;5061860;28;20217;-88
2023/09/07 12:11:39;;;;;;;2.97;2.67;;;;;;;;;;5054580;28;20233;-89
2023/09/07 12:14:07;;;;;;;2.95;2.55;;;;;;;;;;5065791;28;20215;-87
2023/09/07 12:16:34;;;;;;;3.45;2.40;;;;;;;;;;5055565;28;20221;-87
2023/09/07 12:19:02;;;;;;;3.38;2.70;;;;;;;;;;5058070;28;20206;-88
2023/09/07 12:21:29;;;;;;;2.65;2.45;;;;;;;;;;5061962;28;20232;-88
2023/09/07 12:23:56;;;;;;;2.80;2.50;;;;;;;;;;5052996;28;20199;-88
2023/09/07 12:26:23;;;;;;;3.80;2.70;;;;;;;;;;5057250;28;20232;-89
2023/09/07 12:28:50;;;;;;;7.22;3.00;;;;;;;;;;5056627;28;20216;-89
2023/09/07 12:31:18;;;;;;;3.28;2.72;;;;;;;;;;5053090;28;20707;-88
2023/09/07 12:33:45;;;;;;;4.05;2.67;;;;;;;;;;5055056;28;20209;-90
2023/09/07 12:36:12;;;;;;;3.50;2.65;;;;;;;;;;5062504;28;20229;-85
2023/09/07 12:38:40;;;;;;;2.90;2.60;;;;;;;;;;5062427;28;20247;-93
2023/09/07 12:41:07;;;;;;;2.33;2.20;;;;;;;;;;5057330;28;20229;-90
2023/09/07 12:43:34;;;;;;;4.05;2.47;;;;;;;;;;5059538;28;20205;-88
2023/09/07 12:46:01;;;;;;;4.55;2.95;;;;;;;;;;5053183;28;20237;-91
2023/09/07 12:48:29;;;;;;;4.30;2.50;;;;;;;;;;5050227;28;20209;-83
2023/09/07 12:50:56;;;;;;;2.70;2.47;;;;;;;;;;5050308;28;20233;-83
2023/09/07 12:53:25;;;;;;;2.72;2.53;;;;;;;;;;5049476;28;20229;-82
2023/09/07 12:55:52;;;;;;;3.65;2.33;;;;;;;;;;5057199;28;20256;-83
2023/09/07 12:58:20;;;;;;;3.28;2.60;;;;;;;;;;5057813;28;20213;-83
2023/09/07 13:00:48;;;;;;;3.92;2.72;;;;;;;;;;5050123;28;20229;-82
2023/09/07 13:03:15;;;;;;;2.78;2.50;;;;;;;;;;5050415;28;20262;-82
2023/09/07 13:05:44;;;;;;;3.17;2.80;;;;;;;;;;5063210;28;20236;-83
2023/09/07 13:08:12;;;;;;;2.65;2.45;;;;;;;;;;5058882;28;20232;-83
2023/09/07 13:10:39;;;;;;;6.65;2.60;;;;;;;;;;5050199;28;20229;-83
2023/09/07 13:13:06;;;;;;;2.70;2.50;;;;;;;;;;5058984;28;20220;-83
2023/09/07 13:15:33;;;;;;;3.80;2.67;;;;;;;;;;5055767;28;20232;-83
2023/09/07 13:18:01;;;;;;;2.10;2.00;;;;;;;;;;5053802;28;20228;-83
2023/09/07 13:20:28;;;;;;;3.67;2.80;;;;;;;;;;5056647;28;20237;-84
2023/09/07 13:22:56;;;;;;;2.83;2.63;;;;;;;;;;5058697;28;20206;-84
2023/09/07 13:25:23;;;;;;;3.63;2.70;;;;;;;;;;5054839;28;20224;-83
2023/09/07 13:27:50;;;;;;;5.38;2.63;;;;;;;;;;5056628;28;20232;-82
2023/09/07 13:30:17;;;;;;;3.33;2.65;;;;;;;;;;5058150;28;20316;-83
2023/09/07 13:32:46;;;;;;;4.47;2.67;;;;;;;;;;5050389;28;20213;-83
2023/09/07 13:35:14;;;;;;;4.57;3.08;;;;;;;;;;5053012;28;20293;-83
2023/09/07 13:37:41;;;;;;;2.50;2.30;;;;;;;;;;5065505;28;20316;-83
2023/09/07 13:40:10;;;;;;;5.00;2.85;;;;;;;;;;5050350;28;20240;-82
2023/09/07 13:42:38;;;;;;;3.17;2.60;;;;;;;;;;5046003;28;20233;-83
2023/09/07 13:45:06;;;;;;;3.13;2.53;;;;;;;;;;5060509;28;20235;-82
2023/09/07 13:47:33;;;;;;;2.95;2.72;;;;;;;;;;5055573;28;20225;-83
2023/09/07 13:50:00;;;;;;;3.25;2.83;;;;;;;;;;5053516;28;20237;-83
2023/09/07 13:52:27;;;;;;;2.63;2.42;;;;;;;;;;5050819;28;20209;-83
2023/09/07 13:54:54;;;;;;;4.10;2.50;;;;;;;;;;5050329;28;21722;-82
2023/09/07 13:57:23;;;;;;;2.95;2.42;;;;;;;;;;5049977;28;20222;-83
2023/09/07 13:59:50;;;;;;;4.35;2.97;;;;;;;;;;5057937;28;20206;-85
2023/09/07 14:02:17;;;;;;;2.58;2.40;;;;;;;;;;5061426;28;20213;-82
2023/09/07 14:04:44;;;;;;;2.90;2.40;;;;;;;;;;5055042;28;20209;-83
2023/09/07 14:07:12;;;;;;;3.03;2.83;;;;;;;;;;5052873;28;20241;-82
2023/09/07 14:09:39;;;;;;;2.72;2.53;;;;;;;;;;5054829;28;20281;-83
2023/09/07 14:12:07;;;;;;;3.72;2.50;;;;;;;;;;5058636;28;20214;-82
2023/09/07 14:14:35;;;;;;;2.63;2.42;;;;;;;;;;5050933;28;20205;-83
2023/09/07 14:17:03;;;;;;;3.58;2.75;;;;;;;;;;5047815;28;20244;-83
2023/09/07 14:19:30;;;;;;;4.65;2.85;;;;;;;;;;5050604;28;20641;-84
2023/09/07 14:21:58;;;;;;;2.90;2.65;;;;;;;;;;5050159;28;20234;-83
2023/09/07 14:24:25;;;;;;;3.72;2.90;;;;;;;;;;5050798;28;20206;-83
2023/09/07 14:26:52;;;;;;;2.47;2.28;;;;;;;;;;5050854;28;20234;-82
2023/09/07 14:29:19;;;;;;;2.42;2.22;;;;;;;;;;5062901;28;20203;-82
2023/09/07 14:31:48;;;;;;;2.80;2.60;;;;;;;;;;5053885;28;20237;-82
2023/09/07 14:34:15;;;;;;;2.72;2.53;;;;;;;;;;5065890;28;20212;-82
2023/09/07 14:36:42;;;;;;;3.40;2.97;;;;;;;;;;5065954;28;20229;-82
2023/09/07 14:39:09;;;;;;;2.65;2.45;;;;;;;;;;5056578;28;20588;-81
2023/09/07 14:41:37;;;;;;;2.70;2.50;;;;;;;;;;5065372;28;20704;-82
2023/09/07 14:44:04;;;;;;;5.30;2.90;;;;;;;;;;5049296;28;20226;-82
2023/09/07 14:46:31;;;;;;;3.83;2.67;;;;;;;;;;5052971;28;20613;-82